sensor_id;sensor_type;location;lat;lon;timestamp;pressure;altitude;pressure_sealevel;temperature;humidity
43420;BME280;29017;51.514;-0.178;2023-06-22T00:00:22;101416.69;;;21.52;72.30
43420;BME280;29017;51.514;-0.178;2023-06-22T00:02:50;101423.88;;;21.52;72.30
43420;BME280;29017;51.514;-0.178;2023-06-22T00:05:17;101430.06;;;21.52;72.74
43420;BME280;29017;51.514;-0.178;2023-06-22T00:07:44;101423.06;;;21.51;72.37
43420;BME280;29017;51.514;-0.178;2023-06-22T00:10:12;101428.41;;;21.51;72.31
43420;BME280;29017;51.514;-0.178;2023-06-22T00:12:39;101422.44;;;21.49;72.12
43420;BME280;29017;51.514;-0.178;2023-06-22T00:15:07;101413.19;;;21.45;72.02
43420;BME280;29017;51.514;-0.178;2023-06-22T00:17:34;101414.44;;;21.43;72.57
43420;BME280;29017;51.514;-0.178;2023-06-22T00:20:02;101420.63;;;21.43;72.85
43420;BME280;29017;51.514;-0.178;2023-06-22T00:22:32;101423.31;;;21.43;72.76
43420;BME280;29017;51.514;-0.178;2023-06-22T00:25:06;101421.84;;;21.41;72.32
43420;BME280;29017;51.514;-0.178;2023-06-22T00:27:35;101422.28;;;21.38;72.41
43420;BME280;29017;51.514;-0.178;2023-06-22T00:30:03;101426.38;;;21.33;72.94
43420;BME280;29017;51.514;-0.178;2023-06-22T00:32:30;101419.41;;;21.32;73.75
43420;BME280;29017;51.514;-0.178;2023-06-22T00:34:58;101421.47;;;21.30;72.90
43420;BME280;29017;51.514;-0.178;2023-06-22T00:37:25;101414.69;;;21.28;73.05
43420;BME280;29017;51.514;-0.178;2023-06-22T00:39:56;101421.88;;;21.27;73.05
43420;BME280;29017;51.514;-0.178;2023-06-22T00:42:24;101421.88;;;21.27;73.11
43420;BME280;29017;51.514;-0.178;2023-06-22T00:44:51;101417.56;;;21.26;73.56
43420;BME280;29017;51.514;-0.178;2023-06-22T00:47:18;101416.09;;;21.24;73.07
43420;BME280;29017;51.514;-0.178;2023-06-22T00:49:47;101414.25;;;21.24;73.31
43420;BME280;29017;51.514;-0.178;2023-06-22T00:52:15;101409.72;;;21.25;73.67
43420;BME280;29017;51.514;-0.178;2023-06-22T00:54:48;101419.59;;;21.24;74.04
43420;BME280;29017;51.514;-0.178;2023-06-22T00:57:16;101426.41;;;21.20;73.80
43420;BME280;29017;51.514;-0.178;2023-06-22T00:59:45;101422.31;;;21.18;74.27
43420;BME280;29017;51.514;-0.178;2023-06-22T01:02:12;101422.50;;;21.16;74.16
43420;BME280;29017;51.514;-0.178;2023-06-22T01:04:40;101427.44;;;21.13;74.40
43420;BME280;29017;51.514;-0.178;2023-06-22T01:07:21;101420.63;;;21.10;74.15
43420;BME280;29017;51.514;-0.178;2023-06-22T01:12:30;101421.88;;;21.08;74.97
43420;BME280;29017;51.514;-0.178;2023-06-22T01:15:14;101409.28;;;21.08;74.89
43420;BME280;29017;51.514;-0.178;2023-06-22T01:17:44;101425.78;;;21.05;74.48
43420;BME280;29017;51.514;-0.178;2023-06-22T01:20:12;101423.53;;;21.02;74.88
43420;BME280;29017;51.514;-0.178;2023-06-22T01:23:07;101415.91;;;20.99;75.84
43420;BME280;29017;51.514;-0.178;2023-06-22T01:25:46;101421.25;;;20.99;75.85
43420;BME280;29017;51.514;-0.178;2023-06-22T01:30:54;101418.78;;;20.98;75.95
43420;BME280;29017;51.514;-0.178;2023-06-22T01:33:34;101419.00;;;20.96;75.65
43420;BME280;29017;51.514;-0.178;2023-06-22T01:36:03;101421.66;;;20.96;76.12
43420;BME280;29017;51.514;-0.178;2023-06-22T01:38:33;101416.91;;;20.98;76.07
43420;BME280;29017;51.514;-0.178;2023-06-22T01:41:01;101401.09;;;20.97;76.15
43420;BME280;29017;51.514;-0.178;2023-06-22T01:43:30;101418.38;;;20.94;75.90
43420;BME280;29017;51.514;-0.178;2023-06-22T01:46:01;101419.38;;;20.93;75.49
43420;BME280;29017;51.514;-0.178;2023-06-22T01:48:28;101414.66;;;20.88;76.41
43420;BME280;29017;51.514;-0.178;2023-06-22T01:50:56;101409.53;;;20.87;77.62
43420;BME280;29017;51.514;-0.178;2023-06-22T01:53:24;101416.09;;;20.84;76.70
43420;BME280;29017;51.514;-0.178;2023-06-22T01:55:51;101413.44;;;20.84;76.96
43420;BME280;29017;51.514;-0.178;2023-06-22T01:58:21;101417.56;;;20.87;76.94
43420;BME280;29017;51.514;-0.178;2023-06-22T02:01:09;101416.72;;;20.86;76.31
43420;BME280;29017;51.514;-0.178;2023-06-22T02:03:41;101408.69;;;20.86;76.92
43420;BME280;29017;51.514;-0.178;2023-06-22T02:06:27;101407.06;;;20.85;76.82
43420;BME280;29017;51.514;-0.178;2023-06-22T02:08:59;101410.94;;;20.83;76.59
43420;BME280;29017;51.514;-0.178;2023-06-22T02:11:28;101416.53;;;20.81;76.66
43420;BME280;29017;51.514;-0.178;2023-06-22T02:13:57;101408.88;;;20.78;77.30
43420;BME280;29017;51.514;-0.178;2023-06-22T02:16:25;101409.31;;;20.75;77.23
43420;BME280;29017;51.514;-0.178;2023-06-22T02:18:56;101409.75;;;20.72;77.09
43420;BME280;29017;51.514;-0.178;2023-06-22T02:21:30;101408.47;;;20.68;77.45
43420;BME280;29017;51.514;-0.178;2023-06-22T02:23:58;101401.06;;;20.64;77.81
43420;BME280;29017;51.514;-0.178;2023-06-22T02:26:26;101405.00;;;20.61;78.00
43420;BME280;29017;51.514;-0.178;2023-06-22T02:28:54;101402.31;;;20.61;78.07
43420;BME280;29017;51.514;-0.178;2023-06-22T02:31:21;101399.84;;;20.60;78.16
43420;BME280;29017;51.514;-0.178;2023-06-22T02:33:49;101403.53;;;20.59;78.12
43420;BME280;29017;51.514;-0.178;2023-06-22T02:36:16;101403.31;;;20.54;78.15
43420;BME280;29017;51.514;-0.178;2023-06-22T02:38:47;101409.28;;;20.49;78.51
43420;BME280;29017;51.514;-0.178;2023-06-22T02:41:15;101411.97;;;20.49;78.67
43420;BME280;29017;51.514;-0.178;2023-06-22T02:43:46;101397.94;;;20.47;79.03
43420;BME280;29017;51.514;-0.178;2023-06-22T02:46:13;101393.44;;;20.47;79.04
43420;BME280;29017;51.514;-0.178;2023-06-22T02:48:41;101403.75;;;20.51;79.06
43420;BME280;29017;51.514;-0.178;2023-06-22T02:51:11;101412.38;;;20.53;78.86
43420;BME280;29017;51.514;-0.178;2023-06-22T02:53:38;101411.97;;;20.49;78.66
43420;BME280;29017;51.514;-0.178;2023-06-22T02:56:05;101416.91;;;20.45;79.05
43420;BME280;29017;51.514;-0.178;2023-06-22T02:58:32;101414.00;;;20.40;79.64
43420;BME280;29017;51.514;-0.178;2023-06-22T03:01:05;101424.25;;;20.37;79.70
43420;BME280;29017;51.514;-0.178;2023-06-22T03:03:33;101415.84;;;20.40;79.78
43420;BME280;29017;51.514;-0.178;2023-06-22T03:06:00;101411.09;;;20.42;79.54
43420;BME280;29017;51.514;-0.178;2023-06-22T03:08:28;101414.59;;;20.42;79.46
43420;BME280;29017;51.514;-0.178;2023-06-22T03:10:56;101414.41;;;20.44;80.46
43420;BME280;29017;51.514;-0.178;2023-06-22T03:13:23;101412.75;;;20.43;80.07
43420;BME280;29017;51.514;-0.178;2023-06-22T03:15:51;101410.09;;;20.43;79.91
43420;BME280;29017;51.514;-0.178;2023-06-22T03:18:18;101402.28;;;20.41;79.64
43420;BME280;29017;51.514;-0.178;2023-06-22T03:20:45;101411.72;;;20.37;79.84
43420;BME280;29017;51.514;-0.178;2023-06-22T03:23:13;101410.69;;;20.32;79.99
43420;BME280;29017;51.514;-0.178;2023-06-22T03:25:41;101414.34;;;20.24;80.79
43420;BME280;29017;51.514;-0.178;2023-06-22T03:28:08;101412.88;;;20.22;80.59
43420;BME280;29017;51.514;-0.178;2023-06-22T03:30:35;101401.59;;;20.20;81.14
43420;BME280;29017;51.514;-0.178;2023-06-22T03:33:05;101398.91;;;20.20;80.83
43420;BME280;29017;51.514;-0.178;2023-06-22T03:35:32;101394.41;;;20.20;81.20
43420;BME280;29017;51.514;-0.178;2023-06-22T03:37:59;101396.06;;;20.21;81.38
43420;BME280;29017;51.514;-0.178;2023-06-22T03:40:26;101391.31;;;20.23;81.50
43420;BME280;29017;51.514;-0.178;2023-06-22T03:42:55;101388.22;;;20.20;80.65
43420;BME280;29017;51.514;-0.178;2023-06-22T03:45:22;101386.56;;;20.19;80.72
43420;BME280;29017;51.514;-0.178;2023-06-22T03:47:49;101385.75;;;20.18;80.73
43420;BME280;29017;51.514;-0.178;2023-06-22T03:50:16;101386.16;;;20.15;81.27
43420;BME280;29017;51.514;-0.178;2023-06-22T03:52:47;101382.66;;;20.15;81.68
43420;BME280;29017;51.514;-0.178;2023-06-22T03:55:14;101373.81;;;20.14;81.60
43420;BME280;29017;51.514;-0.178;2023-06-22T03:57:41;101376.69;;;20.13;81.36
43420;BME280;29017;51.514;-0.178;2023-06-22T04:00:09;101366.22;;;20.11;81.36
43420;BME280;29017;51.514;-0.178;2023-06-22T04:02:37;101373.59;;;20.09;81.24
43420;BME280;29017;51.514;-0.178;2023-06-22T04:05:05;101371.72;;;20.03;81.31
43420;BME280;29017;51.514;-0.178;2023-06-22T04:07:32;101373.78;;;20.01;82.19
43420;BME280;29017;51.514;-0.178;2023-06-22T04:09:59;101378.50;;;19.99;82.25
43420;BME280;29017;51.514;-0.178;2023-06-22T04:12:27;101384.44;;;19.94;82.03
43420;BME280;29017;51.514;-0.178;2023-06-22T04:14:54;101387.94;;;19.95;82.33
43420;BME280;29017;51.514;-0.178;2023-06-22T04:17:21;101396.16;;;19.93;82.50
43420;BME280;29017;51.514;-0.178;2023-06-22T04:19:51;101398.19;;;19.91;82.69
43420;BME280;29017;51.514;-0.178;2023-06-22T04:22:19;101394.50;;;19.92;82.32
43420;BME280;29017;51.514;-0.178;2023-06-22T04:24:46;101399.84;;;19.92;82.58
43420;BME280;29017;51.514;-0.178;2023-06-22T04:27:13;101395.31;;;19.93;82.42
43420;BME280;29017;51.514;-0.178;2023-06-22T04:29:41;101400.66;;;19.93;82.19
43420;BME280;29017;51.514;-0.178;2023-06-22T04:32:16;101395.50;;;19.91;82.44
43420;BME280;29017;51.514;-0.178;2023-06-22T04:34:43;101399.63;;;19.87;82.65
43420;BME280;29017;51.514;-0.178;2023-06-22T04:37:10;101397.34;;;19.84;82.71
43420;BME280;29017;51.514;-0.178;2023-06-22T04:39:42;101397.16;;;19.86;83.40
43420;BME280;29017;51.514;-0.178;2023-06-22T04:42:12;101403.31;;;19.86;83.21
43420;BME280;29017;51.514;-0.178;2023-06-22T04:44:39;101394.69;;;19.84;82.70
43420;BME280;29017;51.514;-0.178;2023-06-22T04:47:08;101394.03;;;19.82;82.72
43420;BME280;29017;51.514;-0.178;2023-06-22T04:49:36;101392.41;;;19.81;82.76
43420;BME280;29017;51.514;-0.178;2023-06-22T04:52:06;101390.78;;;19.80;82.97
43420;BME280;29017;51.514;-0.178;2023-06-22T04:54:35;101395.91;;;19.82;82.87
43420;BME280;29017;51.514;-0.178;2023-06-22T04:57:05;101389.13;;;19.79;82.97
43420;BME280;29017;51.514;-0.178;2023-06-22T04:59:37;101390.78;;;19.80;83.07
43420;BME280;29017;51.514;-0.178;2023-06-22T05:02:09;101396.13;;;19.80;83.15
43420;BME280;29017;51.514;-0.178;2023-06-22T05:04:37;101389.34;;;19.84;83.07
43420;BME280;29017;51.514;-0.178;2023-06-22T05:07:06;101389.94;;;19.86;82.84
43420;BME280;29017;51.514;-0.178;2023-06-22T05:09:34;101394.09;;;19.89;82.81
43420;BME280;29017;51.514;-0.178;2023-06-22T05:12:02;101385.25;;;19.88;82.65
43420;BME280;29017;51.514;-0.178;2023-06-22T05:14:29;101400.44;;;19.88;82.72
43420;BME280;29017;51.514;-0.178;2023-06-22T05:16:57;101407.44;;;19.89;82.77
43420;BME280;29017;51.514;-0.178;2023-06-22T05:19:25;101409.47;;;19.87;83.13
43420;BME280;29017;51.514;-0.178;2023-06-22T05:22:01;101412.16;;;19.87;83.83
43420;BME280;29017;51.514;-0.178;2023-06-22T05:24:28;101410.31;;;19.87;83.28
43420;BME280;29017;51.514;-0.178;2023-06-22T05:26:55;101408.28;;;19.89;82.87
43420;BME280;29017;51.514;-0.178;2023-06-22T05:29:23;101399.66;;;19.94;83.17
43420;BME280;29017;51.514;-0.178;2023-06-22T05:31:50;101406.44;;;19.96;82.99
43420;BME280;29017;51.514;-0.178;2023-06-22T05:34:17;101420.63;;;19.97;82.91
43420;BME280;29017;51.514;-0.178;2023-06-22T05:36:44;101411.56;;;19.98;83.61
43420;BME280;29017;51.514;-0.178;2023-06-22T05:39:13;101402.34;;;20.00;83.33
43420;BME280;29017;51.514;-0.178;2023-06-22T05:41:41;101413.66;;;20.02;83.04
43420;BME280;29017;51.514;-0.178;2023-06-22T05:44:10;101416.31;;;20.02;82.52
43420;BME280;29017;51.514;-0.178;2023-06-22T05:46:40;101420.47;;;20.05;82.44
43420;BME280;29017;51.514;-0.178;2023-06-22T05:49:13;101423.72;;;20.07;82.63
43420;BME280;29017;51.514;-0.178;2023-06-22T05:51:41;101420.88;;;20.08;82.82
43420;BME280;29017;51.514;-0.178;2023-06-22T05:54:08;101418.84;;;20.11;82.51
43420;BME280;29017;51.514;-0.178;2023-06-22T05:56:35;101420.91;;;20.15;82.68
43420;BME280;29017;51.514;-0.178;2023-06-22T05:59:04;101424.63;;;20.21;82.73
43420;BME280;29017;51.514;-0.178;2023-06-22T06:01:31;101425.03;;;20.24;81.83
43420;BME280;29017;51.514;-0.178;2023-06-22T06:04:03;101423.78;;;20.27;81.63
43420;BME280;29017;51.514;-0.178;2023-06-22T06:06:31;101421.34;;;20.25;81.45
43420;BME280;29017;51.514;-0.178;2023-06-22T06:08:58;101428.13;;;20.28;81.37
43420;BME280;29017;51.514;-0.178;2023-06-22T06:11:26;101423.41;;;20.30;81.29
43420;BME280;29017;51.514;-0.178;2023-06-22T06:13:53;101425.09;;;20.31;81.37
43420;BME280;29017;51.514;-0.178;2023-06-22T06:16:22;101428.75;;;20.30;81.68
43420;BME280;29017;51.514;-0.178;2023-06-22T06:18:49;101423.41;;;20.30;81.52
43420;BME280;29017;51.514;-0.178;2023-06-22T06:21:17;101420.34;;;20.33;82.08
43420;BME280;29017;51.514;-0.178;2023-06-22T06:23:44;101409.88;;;20.38;81.82
43420;BME280;29017;51.514;-0.178;2023-06-22T06:26:12;101414.84;;;20.41;81.80
43420;BME280;29017;51.514;-0.178;2023-06-22T06:28:39;101412.56;;;20.44;81.46
43420;BME280;29017;51.514;-0.178;2023-06-22T06:31:08;101404.97;;;20.48;81.75
43420;BME280;29017;51.514;-0.178;2023-06-22T06:33:36;101404.75;;;20.49;81.89
43420;BME280;29017;51.514;-0.178;2023-06-22T06:36:03;101415.47;;;20.56;81.64
43420;BME280;29017;51.514;-0.178;2023-06-22T06:38:30;101415.69;;;20.61;81.56
43420;BME280;29017;51.514;-0.178;2023-06-22T06:40:58;101416.72;;;20.67;80.65
43420;BME280;29017;51.514;-0.178;2023-06-22T06:43:26;101408.91;;;20.72;80.81
43420;BME280;29017;51.514;-0.178;2023-06-22T06:45:54;101405.00;;;20.74;79.98
43420;BME280;29017;51.514;-0.178;2023-06-22T06:48:21;101394.91;;;20.76;80.50
43420;BME280;29017;51.514;-0.178;2023-06-22T06:50:48;101406.03;;;20.80;79.27
43420;BME280;29017;51.514;-0.178;2023-06-22T06:53:16;101400.25;;;20.76;79.38
43420;BME280;29017;51.514;-0.178;2023-06-22T06:55:48;101393.91;;;20.77;79.81
43420;BME280;29017;51.514;-0.178;2023-06-22T06:58:15;101398.19;;;20.78;79.61
43420;BME280;29017;51.514;-0.178;2023-06-22T07:00:44;101395.94;;;20.75;80.12
43420;BME280;29017;51.514;-0.178;2023-06-22T07:03:12;101391.00;;;20.72;80.27
43420;BME280;29017;51.514;-0.178;2023-06-22T07:05:39;101403.75;;;20.70;80.31
43420;BME280;29017;51.514;-0.178;2023-06-22T07:08:06;101391.41;;;20.69;80.32
43420;BME280;29017;51.514;-0.178;2023-06-22T07:10:34;101396.38;;;20.72;80.57
43420;BME280;29017;51.514;-0.178;2023-06-22T07:13:01;101405.19;;;20.79;80.95
43420;BME280;29017;51.514;-0.178;2023-06-22T07:15:28;101400.44;;;20.88;79.54
43420;BME280;29017;51.514;-0.178;2023-06-22T07:17:58;101404.59;;;20.90;79.25
43420;BME280;29017;51.514;-0.178;2023-06-22T07:20:25;101406.63;;;20.95;79.54
43420;BME280;29017;51.514;-0.178;2023-06-22T07:22:53;101399.63;;;21.01;79.91
43420;BME280;29017;51.514;-0.178;2023-06-22T07:25:21;101402.31;;;21.14;78.24
43420;BME280;29017;51.514;-0.178;2023-06-22T07:28:06;101391.63;;;21.14;78.11
43420;BME280;29017;51.514;-0.178;2023-06-22T07:30:34;101394.50;;;21.19;78.12
43420;BME280;29017;51.514;-0.178;2023-06-22T07:33:02;101392.19;;;21.29;78.06
43420;BME280;29017;51.514;-0.178;2023-06-22T07:35:32;101389.28;;;21.44;77.29
43420;BME280;29017;51.514;-0.178;2023-06-22T07:38:00;101393.34;;;21.66;76.94
43420;BME280;29017;51.514;-0.178;2023-06-22T07:40:31;101387.72;;;21.94;75.08
43420;BME280;29017;51.514;-0.178;2023-06-22T07:42:59;101385.84;;;22.57;72.30
43420;BME280;29017;51.514;-0.178;2023-06-22T07:45:26;101390.78;;;23.34;69.79
43420;BME280;29017;51.514;-0.178;2023-06-22T07:47:54;101397.75;;;24.26;66.14
43420;BME280;29017;51.514;-0.178;2023-06-22T07:50:21;101400.63;;;24.55;64.27
43420;BME280;29017;51.514;-0.178;2023-06-22T07:52:49;101398.03;;;24.48;63.87
43420;BME280;29017;51.514;-0.178;2023-06-22T07:55:19;101403.25;;;24.32;66.31
43420;BME280;29017;51.514;-0.178;2023-06-22T07:57:49;101400.00;;;24.11;65.72
43420;BME280;29017;51.514;-0.178;2023-06-22T08:00:16;101391.41;;;24.03;66.23
43420;BME280;29017;51.514;-0.178;2023-06-22T08:02:47;101388.53;;;23.86;67.22
43420;BME280;29017;51.514;-0.178;2023-06-22T08:05:15;101389.75;;;23.72;68.21
43420;BME280;29017;51.514;-0.178;2023-06-22T08:07:48;101386.63;;;23.57;67.93
43420;BME280;29017;51.514;-0.178;2023-06-22T08:10:16;101384.44;;;23.47;68.59
43420;BME280;29017;51.514;-0.178;2023-06-22T08:12:44;101379.34;;;23.39;69.47
43420;BME280;29017;51.514;-0.178;2023-06-22T08:15:13;101380.47;;;23.31;70.02
43420;BME280;29017;51.514;-0.178;2023-06-22T08:17:41;101377.34;;;23.34;69.89
43420;BME280;29017;51.514;-0.178;2023-06-22T08:20:09;101377.28;;;23.59;70.70
43420;BME280;29017;51.514;-0.178;2023-06-22T08:22:41;101377.69;;;23.93;67.77
43420;BME280;29017;51.514;-0.178;2023-06-22T08:25:09;101386.84;;;24.03;65.36
43420;BME280;29017;51.514;-0.178;2023-06-22T08:27:37;101380.63;;;23.91;66.65
43420;BME280;29017;51.514;-0.178;2023-06-22T08:30:06;101382.47;;;23.91;67.22
43420;BME280;29017;51.514;-0.178;2023-06-22T08:32:33;101386.16;;;24.26;66.47
43420;BME280;29017;51.514;-0.178;2023-06-22T08:35:00;101383.97;;;24.88;64.58
43420;BME280;29017;51.514;-0.178;2023-06-22T08:37:28;101377.97;;;25.44;62.28
43420;BME280;29017;51.514;-0.178;2023-06-22T08:40:04;101379.81;;;25.55;61.40
43420;BME280;29017;51.514;-0.178;2023-06-22T08:42:33;101374.69;;;25.30;61.66
43420;BME280;29017;51.514;-0.178;2023-06-22T08:45:00;101373.78;;;25.01;61.95
43420;BME280;29017;51.514;-0.178;2023-06-22T08:47:28;101374.22;;;24.87;64.42
43420;BME280;29017;51.514;-0.178;2023-06-22T08:49:55;101370.47;;;24.76;64.10
43420;BME280;29017;51.514;-0.178;2023-06-22T08:52:26;101370.81;;;24.68;64.24
43420;BME280;29017;51.514;-0.178;2023-06-22T08:54:53;101373.03;;;24.71;63.78
43420;BME280;29017;51.514;-0.178;2023-06-22T08:57:21;101370.13;;;24.73;63.36
43420;BME280;29017;51.514;-0.178;2023-06-22T08:59:48;101375.84;;;24.76;61.98
43420;BME280;29017;51.514;-0.178;2023-06-22T09:02:16;101376.91;;;24.63;63.01
43420;BME280;29017;51.514;-0.178;2023-06-22T09:04:45;101376.63;;;24.42;62.92
43420;BME280;29017;51.514;-0.178;2023-06-22T09:07:13;101375.31;;;24.33;62.11
43420;BME280;29017;51.514;-0.178;2023-06-22T09:09:40;101382.91;;;24.36;62.12
43420;BME280;29017;51.514;-0.178;2023-06-22T09:12:08;101383.03;;;24.41;63.46
43420;BME280;29017;51.514;-0.178;2023-06-22T09:14:36;101392.63;;;24.37;63.35
43420;BME280;29017;51.514;-0.178;2023-06-22T09:17:04;101393.19;;;24.27;63.65
43420;BME280;29017;51.514;-0.178;2023-06-22T09:19:32;101382.50;;;24.20;64.10
43420;BME280;29017;51.514;-0.178;2023-06-22T09:22:02;101384.44;;;24.13;63.51
43420;BME280;29017;51.514;-0.178;2023-06-22T09:24:31;101377.19;;;24.14;62.30
43420;BME280;29017;51.514;-0.178;2023-06-22T09:27:00;101382.44;;;24.09;62.99
43420;BME280;29017;51.514;-0.178;2023-06-22T09:29:30;101376.69;;;24.05;63.13
43420;BME280;29017;51.514;-0.178;2023-06-22T09:32:01;101382.16;;;23.99;62.98
43420;BME280;29017;51.514;-0.178;2023-06-22T09:34:29;101381.34;;;23.98;63.14
43420;BME280;29017;51.514;-0.178;2023-06-22T09:36:58;101377.38;;;24.01;63.55
43420;BME280;29017;51.514;-0.178;2023-06-22T09:39:27;101378.78;;;24.03;61.23
43420;BME280;29017;51.514;-0.178;2023-06-22T09:41:54;101386.63;;;24.05;60.60
43420;BME280;29017;51.514;-0.178;2023-06-22T09:44:22;101377.81;;;23.98;60.65
43420;BME280;29017;51.514;-0.178;2023-06-22T09:46:49;101384.84;;;23.99;61.00
43420;BME280;29017;51.514;-0.178;2023-06-22T09:49:17;101384.16;;;24.03;60.92
43420;BME280;29017;51.514;-0.178;2023-06-22T09:51:53;101383.78;;;24.18;60.26
43420;BME280;29017;51.514;-0.178;2023-06-22T09:54:20;101383.25;;;24.39;59.05
43420;BME280;29017;51.514;-0.178;2023-06-22T09:56:48;101381.78;;;24.55;59.75
43420;BME280;29017;51.514;-0.178;2023-06-22T09:59:15;101378.63;;;24.69;59.28
43420;BME280;29017;51.514;-0.178;2023-06-22T10:01:44;101377.38;;;24.84;58.47
43420;BME280;29017;51.514;-0.178;2023-06-22T10:04:12;101380.69;;;24.97;58.70
43420;BME280;29017;51.514;-0.178;2023-06-22T10:06:40;101380.22;;;25.12;59.50
43420;BME280;29017;51.514;-0.178;2023-06-22T10:09:08;101375.16;;;25.16;58.16
43420;BME280;29017;51.514;-0.178;2023-06-22T10:11:35;101382.19;;;25.17;58.22
43420;BME280;29017;51.514;-0.178;2023-06-22T10:14:04;101376.94;;;25.22;56.30
43420;BME280;29017;51.514;-0.178;2023-06-22T10:16:31;101374.56;;;25.37;56.05
43420;BME280;29017;51.514;-0.178;2023-06-22T10:18:59;101370.69;;;25.44;56.02
43420;BME280;29017;51.514;-0.178;2023-06-22T10:21:27;101373.13;;;25.46;55.61
43420;BME280;29017;51.514;-0.178;2023-06-22T10:23:55;101367.78;;;25.34;56.43
43420;BME280;29017;51.514;-0.178;2023-06-22T10:26:23;101368.25;;;25.31;54.33
43420;BME280;29017;51.514;-0.178;2023-06-22T10:28:50;101374.22;;;25.33;54.55
43420;BME280;29017;51.514;-0.178;2023-06-22T10:31:36;101365.88;;;25.35;53.69
43420;BME280;29017;51.514;-0.178;2023-06-22T10:34:05;101366.25;;;25.38;52.37
43420;BME280;29017;51.514;-0.178;2023-06-22T10:36:32;101362.63;;;25.33;51.76
43420;BME280;29017;51.514;-0.178;2023-06-22T10:39:00;101366.50;;;25.25;52.22
43420;BME280;29017;51.514;-0.178;2023-06-22T10:41:29;101366.63;;;25.19;53.64
43420;BME280;29017;51.514;-0.178;2023-06-22T10:43:57;101360.66;;;25.17;53.40
43420;BME280;29017;51.514;-0.178;2023-06-22T10:46:26;101362.97;;;25.25;53.38
43420;BME280;29017;51.514;-0.178;2023-06-22T10:48:55;101360.84;;;25.38;53.69
43420;BME280;29017;51.514;-0.178;2023-06-22T10:51:24;101361.06;;;25.48;53.37
43420;BME280;29017;51.514;-0.178;2023-06-22T10:53:53;101363.28;;;25.63;52.74
43420;BME280;29017;51.514;-0.178;2023-06-22T10:56:21;101367.84;;;25.74;52.19
43420;BME280;29017;51.514;-0.178;2023-06-22T10:58:49;101359.47;;;25.76;52.40
43420;BME280;29017;51.514;-0.178;2023-06-22T11:01:17;101365.84;;;25.70;53.33
43420;BME280;29017;51.514;-0.178;2023-06-22T11:04:01;101367.53;;;25.59;51.84
43420;BME280;29017;51.514;-0.178;2023-06-22T11:06:29;101365.38;;;25.73;51.24
43420;BME280;29017;51.514;-0.178;2023-06-22T11:08:57;101369.44;;;25.75;51.18
43420;BME280;29017;51.514;-0.178;2023-06-22T11:11:50;101368.84;;;25.85;50.73
43420;BME280;29017;51.514;-0.178;2023-06-22T11:14:18;101365.06;;;25.86;50.50
43420;BME280;29017;51.514;-0.178;2023-06-22T11:16:49;101367.53;;;25.87;50.27
43420;BME280;29017;51.514;-0.178;2023-06-22T11:19:18;101365.44;;;25.89;50.66
43420;BME280;29017;51.514;-0.178;2023-06-22T11:21:46;101370.22;;;25.87;50.70
43420;BME280;29017;51.514;-0.178;2023-06-22T11:24:14;101365.34;;;25.84;48.38
43420;BME280;29017;51.514;-0.178;2023-06-22T11:26:43;101370.72;;;25.84;47.53
43420;BME280;29017;51.514;-0.178;2023-06-22T11:29:11;101369.91;;;25.84;47.85
43420;BME280;29017;51.514;-0.178;2023-06-22T11:31:53;101365.88;;;25.86;48.53
43420;BME280;29017;51.514;-0.178;2023-06-22T11:34:21;101363.69;;;25.83;49.50
43420;BME280;29017;51.514;-0.178;2023-06-22T11:36:48;101369.53;;;25.80;48.81
43420;BME280;29017;51.514;-0.178;2023-06-22T11:39:16;101362.13;;;25.87;47.95
43420;BME280;29017;51.514;-0.178;2023-06-22T11:41:46;101357.06;;;25.91;47.82
43420;BME280;29017;51.514;-0.178;2023-06-22T11:44:13;101364.06;;;26.04;46.71
43420;BME280;29017;51.514;-0.178;2023-06-22T11:46:41;101356.56;;;26.06;46.16
43420;BME280;29017;51.514;-0.178;2023-06-22T11:49:08;101351.81;;;26.13;44.85
43420;BME280;29017;51.514;-0.178;2023-06-22T11:51:36;101347.84;;;26.15;44.40
43420;BME280;29017;51.514;-0.178;2023-06-22T11:54:03;101348.38;;;26.17;45.12
43420;BME280;29017;51.514;-0.178;2023-06-22T11:56:32;101349.53;;;26.21;45.73
43420;BME280;29017;51.514;-0.178;2023-06-22T11:59:00;101347.22;;;26.25;45.26
43420;BME280;29017;51.514;-0.178;2023-06-22T12:01:27;101345.50;;;26.35;45.67
43420;BME280;29017;51.514;-0.178;2023-06-22T12:03:54;101351.81;;;26.41;46.18
43420;BME280;29017;51.514;-0.178;2023-06-22T12:06:22;101338.31;;;26.41;48.30
43420;BME280;29017;51.514;-0.178;2023-06-22T12:08:49;101343.06;;;26.51;46.85
43420;BME280;29017;51.514;-0.178;2023-06-22T12:11:19;101341.50;;;26.55;46.13
43420;BME280;29017;51.514;-0.178;2023-06-22T12:13:46;101335.53;;;26.53;45.96
43420;BME280;29017;51.514;-0.178;2023-06-22T12:16:13;101335.19;;;26.49;46.54
43420;BME280;29017;51.514;-0.178;2023-06-22T12:18:40;101336.75;;;26.45;47.05
43420;BME280;29017;51.514;-0.178;2023-06-22T12:21:08;101337.59;;;26.46;45.26
43420;BME280;29017;51.514;-0.178;2023-06-22T12:23:35;101337.22;;;26.42;44.25
43420;BME280;29017;51.514;-0.178;2023-06-22T12:26:03;101329.13;;;26.42;44.34
43420;BME280;29017;51.514;-0.178;2023-06-22T12:28:31;101334.97;;;26.51;44.87
43420;BME280;29017;51.514;-0.178;2023-06-22T12:30:58;101330.03;;;26.64;44.36
43420;BME280;29017;51.514;-0.178;2023-06-22T12:33:25;101336.66;;;26.73;42.87
43420;BME280;29017;51.514;-0.178;2023-06-22T12:35:53;101330.44;;;26.73;43.61
43420;BME280;29017;51.514;-0.178;2023-06-22T12:38:20;101329.88;;;26.71;44.37
43420;BME280;29017;51.514;-0.178;2023-06-22T12:40:47;101329.88;;;26.71;44.68
43420;BME280;29017;51.514;-0.178;2023-06-22T12:43:16;101330.63;;;26.66;45.68
43420;BME280;29017;51.514;-0.178;2023-06-22T12:45:43;101337.47;;;26.57;46.17
43420;BME280;29017;51.514;-0.178;2023-06-22T12:48:11;101329.88;;;26.54;46.27
43420;BME280;29017;51.514;-0.178;2023-06-22T12:50:40;101332.75;;;26.48;46.29
43420;BME280;29017;51.514;-0.178;2023-06-22T12:53:07;101328.91;;;26.44;46.11